Time;durP1;ratioP1;P1;durP2;ratioP2;P2;SDS_P1;SDS_P2;PMS_P1;PMS_P2;Temp;Humidity;BMP_temperature;BMP_pressure;BME280_temperature;BME280_humidity;BME280_pressure;Samples;Min_cycle;Max_cycle;Signal;HPM_P1;HPM_P2
2023/12/05 00:00:56;;;;;;;105.93;73.43;;;;;;;;;;5021585;28;25056;-73
2023/12/05 00:03:22;;;;;;;106.53;75.80;;;;;;;;;;5028862;28;25099;-73
2023/12/05 00:05:48;;;;;;;112.45;77.30;;;;;;;;;;5027988;28;25054;-74
2023/12/05 00:08:15;;;;;;;109.53;75.28;;;;;;;;;;5019404;28;25072;-73
2023/12/05 00:10:41;;;;;;;119.00;78.68;;;;;;;;;;5023746;28;25053;-74
2023/12/05 00:13:07;;;;;;;113.25;75.85;;;;;;;;;;5012060;28;25061;-74
2023/12/05 00:15:33;;;;;;;119.35;80.68;;;;;;;;;;5006279;28;25067;-74
2023/12/05 00:17:59;;;;;;;119.00;82.82;;;;;;;;;;5007189;28;25065;-74
2023/12/05 00:20:25;;;;;;;106.57;79.90;;;;;;;;;;5009232;28;25151;-76
2023/12/05 00:22:51;;;;;;;103.30;76.85;;;;;;;;;;5006784;28;25067;-75
2023/12/05 00:25:18;;;;;;;103.00;76.43;;;;;;;;;;5008274;28;25061;-74
2023/12/05 00:27:44;;;;;;;113.97;76.82;;;;;;;;;;5007037;28;25056;-75
2023/12/05 00:30:11;;;;;;;108.45;76.38;;;;;;;;;;5010190;28;25075;-74
2023/12/05 00:32:37;;;;;;;110.70;76.35;;;;;;;;;;5009345;28;26178;-74
2023/12/05 00:35:03;;;;;;;109.63;78.78;;;;;;;;;;5009513;28;25130;-74
2023/12/05 00:37:29;;;;;;;114.07;76.75;;;;;;;;;;5006376;28;25057;-75
2023/12/05 00:39:55;;;;;;;102.70;72.65;;;;;;;;;;5006898;28;25075;-75
2023/12/05 00:42:21;;;;;;;108.22;75.05;;;;;;;;;;5004765;28;25161;-74
2023/12/05 00:44:47;;;;;;;108.18;74.55;;;;;;;;;;5004146;28;25115;-74
2023/12/05 00:47:13;;;;;;;116.25;79.07;;;;;;;;;;5004133;28;25100;-74
2023/12/05 00:49:38;;;;;;;103.35;76.45;;;;;;;;;;5003569;28;25105;-75
2023/12/05 00:52:05;;;;;;;108.28;75.32;;;;;;;;;;4999235;28;25065;-74
2023/12/05 00:54:31;;;;;;;100.53;73.78;;;;;;;;;;5003297;28;25135;-74
2023/12/05 00:56:57;;;;;;;109.88;76.70;;;;;;;;;;5002706;28;25096;-74
2023/12/05 00:59:23;;;;;;;112.97;77.93;;;;;;;;;;5005847;28;25110;-73
2023/12/05 01:01:49;;;;;;;102.95;75.90;;;;;;;;;;5003298;28;25179;-74
2023/12/05 01:04:15;;;;;;;106.45;73.95;;;;;;;;;;5006053;28;25078;-74
2023/12/05 01:06:41;;;;;;;99.45;75.55;;;;;;;;;;5005668;28;25048;-74
2023/12/05 01:09:10;;;;;;;113.85;77.85;;;;;;;;;;5005729;28;25084;-74
2023/12/05 01:11:36;;;;;;;111.55;76.03;;;;;;;;;;5003549;28;25082;-74
2023/12/05 01:14:02;;;;;;;112.75;76.65;;;;;;;;;;5005716;28;25102;-74
2023/12/05 01:16:28;;;;;;;110.57;77.68;;;;;;;;;;5006309;28;25085;-74
2023/12/05 01:18:54;;;;;;;100.35;73.32;;;;;;;;;;5007890;28;25071;-74
2023/12/05 01:21:20;;;;;;;103.65;75.68;;;;;;;;;;5006278;28;25135;-74
2023/12/05 01:23:46;;;;;;;112.22;78.30;;;;;;;;;;5009984;28;25101;-75
2023/12/05 01:26:11;;;;;;;108.93;81.53;;;;;;;;;;5005054;28;25124;-73
2023/12/05 01:28:38;;;;;;;106.15;74.88;;;;;;;;;;5002179;28;25051;-73
2023/12/05 01:31:04;;;;;;;125.30;79.53;;;;;;;;;;5005643;28;25141;-74
2023/12/05 01:33:30;;;;;;;120.93;79.68;;;;;;;;;;5005165;28;25078;-74
2023/12/05 01:35:56;;;;;;;116.85;80.35;;;;;;;;;;5005414;28;25058;-74
2023/12/05 01:38:22;;;;;;;103.97;74.63;;;;;;;;;;5006023;28;25102;-73
2023/12/05 01:40:48;;;;;;;110.13;78.88;;;;;;;;;;5003042;28;25144;-74
2023/12/05 01:43:14;;;;;;;120.05;79.25;;;;;;;;;;5002034;28;25070;-74
2023/12/05 01:45:40;;;;;;;120.22;80.07;;;;;;;;;;4998828;28;25072;-74
2023/12/05 01:48:06;;;;;;;117.63;79.25;;;;;;;;;;5004045;28;25082;-74
2023/12/05 01:50:32;;;;;;;106.93;77.10;;;;;;;;;;5002269;28;25063;-75
2023/12/05 01:53:00;;;;;;;102.95;74.88;;;;;;;;;;5005577;28;25112;-74
2023/12/05 01:55:27;;;;;;;110.28;80.50;;;;;;;;;;5004962;28;25063;-75
2023/12/05 01:57:54;;;;;;;135.27;83.18;;;;;;;;;;5008299;28;25075;-74
2023/12/05 02:00:20;;;;;;;116.47;77.20;;;;;;;;;;5019689;28;25080;-74
2023/12/05 02:02:46;;;;;;;120.82;78.90;;;;;;;;;;5006543;28;25076;-74
2023/12/05 02:05:14;;;;;;;96.90;71.20;;;;;;;;;;5010284;28;25067;-74
2023/12/05 02:07:40;;;;;;;109.15;76.47;;;;;;;;;;5007628;28;25092;-73
2023/12/05 02:10:07;;;;;;;111.75;77.93;;;;;;;;;;5006414;28;25051;-75
2023/12/05 02:12:33;;;;;;;104.93;76.00;;;;;;;;;;5007380;28;25107;-74
2023/12/05 02:14:59;;;;;;;118.55;78.70;;;;;;;;;;5008156;28;25076;-74
2023/12/05 02:17:34;;;;;;;135.52;81.65;;;;;;;;;;5008885;28;25066;-73
2023/12/05 02:20:14;;;;;;;116.65;78.45;;;;;;;;;;5008143;28;25063;-74
2023/12/05 02:22:57;;;;;;;121.90;79.53;;;;;;;;;;5023529;28;25147;-73
2023/12/05 02:25:33;;;;;;;129.27;82.15;;;;;;;;;;5020085;28;25079;-73
2023/12/05 02:28:00;;;;;;;135.82;80.38;;;;;;;;;;5009007;28;25094;-75
2023/12/05 02:30:26;;;;;;;136.55;80.50;;;;;;;;;;5007882;28;25088;-73
2023/12/05 02:32:52;;;;;;;131.50;80.22;;;;;;;;;;5006491;28;25095;-74
2023/12/05 02:35:18;;;;;;;139.10;82.47;;;;;;;;;;5007890;28;25164;-73
2023/12/05 02:37:47;;;;;;;116.70;75.90;;;;;;;;;;5004804;28;25067;-73
2023/12/05 02:40:32;;;;;;;117.13;74.75;;;;;;;;;;5020177;28;25163;-74
2023/12/05 02:42:59;;;;;;;132.82;79.15;;;;;;;;;;5021017;28;25132;-74
2023/12/05 02:45:30;;;;;;;152.25;83.55;;;;;;;;;;5005201;28;25100;-74
2023/12/05 02:47:57;;;;;;;130.25;77.60;;;;;;;;;;5002850;28;25106;-74
2023/12/05 02:50:23;;;;;;;140.93;81.97;;;;;;;;;;5006419;28;25074;-72
2023/12/05 02:52:49;;;;;;;144.77;83.72;;;;;;;;;;5005825;28;25055;-75
2023/12/05 02:55:15;;;;;;;140.65;81.18;;;;;;;;;;5006726;28;25087;-74
2023/12/05 02:57:41;;;;;;;145.73;82.95;;;;;;;;;;5007626;28;25082;-75
2023/12/05 03:00:08;;;;;;;129.20;77.18;;;;;;;;;;5008005;28;25078;-74
2023/12/05 03:02:34;;;;;;;136.55;81.40;;;;;;;;;;5003785;28;25158;-75
2023/12/05 03:05:00;;;;;;;151.80;83.25;;;;;;;;;;5003742;28;25077;-75
2023/12/05 03:07:26;;;;;;;148.57;81.78;;;;;;;;;;5023205;28;25068;-74
2023/12/05 03:09:52;;;;;;;148.13;81.13;;;;;;;;;;5019438;28;25086;-74
2023/12/05 03:12:18;;;;;;;159.93;84.65;;;;;;;;;;5019346;28;25055;-75
2023/12/05 03:14:43;;;;;;;161.95;85.43;;;;;;;;;;5024913;28;25048;-74
2023/12/05 03:17:09;;;;;;;177.60;97.35;;;;;;;;;;5016539;28;25128;-73
2023/12/05 03:19:37;;;;;;;169.05;86.45;;;;;;;;;;5015749;28;25077;-73
2023/12/05 03:22:03;;;;;;;180.98;91.43;;;;;;;;;;5014876;28;25067;-74
2023/12/05 03:24:29;;;;;;;175.23;91.28;;;;;;;;;;5008069;28;25091;-74
2023/12/05 03:26:56;;;;;;;175.50;88.50;;;;;;;;;;5010464;28;25057;-74
2023/12/05 03:29:21;;;;;;;183.07;92.25;;;;;;;;;;5003748;28;25061;-73
2023/12/05 03:31:47;;;;;;;181.93;90.80;;;;;;;;;;5005398;28;25082;-72
2023/12/05 03:34:13;;;;;;;189.73;92.35;;;;;;;;;;5006051;28;25089;-73
2023/12/05 03:36:39;;;;;;;186.98;90.38;;;;;;;;;;5003089;28;25073;-73
2023/12/05 03:39:05;;;;;;;187.95;89.07;;;;;;;;;;5006650;28;25076;-72
2023/12/05 03:41:31;;;;;;;160.93;85.43;;;;;;;;;;5004838;28;25074;-72
2023/12/05 03:43:57;;;;;;;176.90;89.63;;;;;;;;;;5005576;28;25094;-72
2023/12/05 03:46:23;;;;;;;163.18;86.85;;;;;;;;;;5006453;28;25164;-73
2023/12/05 03:48:49;;;;;;;166.90;88.00;;;;;;;;;;5006869;28;25157;-73
2023/12/05 03:51:15;;;;;;;168.27;84.63;;;;;;;;;;5003912;28;25043;-73
2023/12/05 03:53:41;;;;;;;181.88;90.30;;;;;;;;;;5006029;28;25120;-73
2023/12/05 03:56:08;;;;;;;192.40;92.70;;;;;;;;;;5006249;28;25095;-75
2023/12/05 03:58:33;;;;;;;180.90;91.15;;;;;;;;;;5005031;28;25150;-74
2023/12/05 04:00:59;;;;;;;148.93;79.40;;;;;;;;;;5004277;28;25193;-74
2023/12/05 04:03:25;;;;;;;192.45;88.22;;;;;;;;;;5004529;28;25138;-74
2023/12/05 04:05:51;;;;;;;179.90;88.00;;;;;;;;;;5004202;28;25110;-74
2023/12/05 04:08:17;;;;;;;175.73;86.53;;;;;;;;;;5006477;28;25074;-73
2023/12/05 04:10:43;;;;;;;164.35;82.82;;;;;;;;;;5006394;28;25163;-74
2023/12/05 04:13:09;;;;;;;135.73;78.47;;;;;;;;;;5009055;28;25075;-74
2023/12/05 04:15:35;;;;;;;169.60;84.90;;;;;;;;;;5006061;28;25049;-73
2023/12/05 04:18:01;;;;;;;185.13;86.50;;;;;;;;;;5005141;28;25068;-73
2023/12/05 04:20:27;;;;;;;190.98;87.90;;;;;;;;;;5000541;28;25063;-73
2023/12/05 04:22:53;;;;;;;197.90;87.90;;;;;;;;;;5002834;28;25095;-72
2023/12/05 04:25:19;;;;;;;181.75;87.30;;;;;;;;;;5004191;28;25094;-74
2023/12/05 04:27:45;;;;;;;132.00;76.82;;;;;;;;;;5005194;28;25062;-73
2023/12/05 04:30:11;;;;;;;187.73;88.35;;;;;;;;;;5005838;28;25154;-73
2023/12/05 04:32:37;;;;;;;186.93;88.68;;;;;;;;;;5004199;28;25075;-72
2023/12/05 04:35:03;;;;;;;181.80;86.60;;;;;;;;;;5004758;28;25111;-74
2023/12/05 04:37:29;;;;;;;160.40;79.85;;;;;;;;;;5007509;28;25111;-73
2023/12/05 04:39:55;;;;;;;188.13;84.78;;;;;;;;;;5005838;28;25077;-73
2023/12/05 04:42:21;;;;;;;146.90;78.68;;;;;;;;;;5006421;28;25066;-73
2023/12/05 04:44:47;;;;;;;202.60;92.40;;;;;;;;;;5003787;28;25111;-73
2023/12/05 04:47:13;;;;;;;195.52;87.50;;;;;;;;;;5002949;28;25083;-74
2023/12/05 04:49:39;;;;;;;195.40;93.57;;;;;;;;;;5007868;28;25074;-74
2023/12/05 04:52:05;;;;;;;206.73;89.75;;;;;;;;;;5007033;28;25078;-73
2023/12/05 04:54:31;;;;;;;182.93;83.57;;;;;;;;;;5004686;28;25058;-74
2023/12/05 04:56:57;;;;;;;180.70;84.38;;;;;;;;;;5000387;28;25077;-73
2023/12/05 04:59:23;;;;;;;175.65;83.65;;;;;;;;;;5005779;28;25069;-75
2023/12/05 05:01:50;;;;;;;181.65;82.00;;;;;;;;;;5005342;28;25070;-72
2023/12/05 05:04:17;;;;;;;153.70;77.72;;;;;;;;;;5005345;28;25056;-73
2023/12/05 05:06:43;;;;;;;138.15;73.70;;;;;;;;;;4984966;28;25085;-73
2023/12/05 05:09:08;;;;;;;189.35;86.63;;;;;;;;;;5004242;28;25048;-73
2023/12/05 05:11:34;;;;;;;198.75;90.72;;;;;;;;;;5004544;28;25061;-73
2023/12/05 05:14:00;;;;;;;182.07;86.57;;;;;;;;;;5006363;28;25160;-74
2023/12/05 05:16:26;;;;;;;193.98;86.57;;;;;;;;;;5002589;28;25159;-74
2023/12/05 05:18:53;;;;;;;170.75;85.53;;;;;;;;;;5005404;28;25060;-73
2023/12/05 05:21:19;;;;;;;168.05;88.78;;;;;;;;;;5004531;28;25075;-75
2023/12/05 05:23:45;;;;;;;166.43;77.55;;;;;;;;;;5005186;28;25080;-73
2023/12/05 05:26:11;;;;;;;163.35;80.53;;;;;;;;;;5005013;28;25136;-74
2023/12/05 05:28:37;;;;;;;173.43;79.88;;;;;;;;;;5005351;28;25141;-75
2023/12/05 05:31:02;;;;;;;161.70;75.75;;;;;;;;;;5008056;28;25057;-73
2023/12/05 05:33:28;;;;;;;155.52;75.82;;;;;;;;;;5008388;28;25069;-73
2023/12/05 05:35:54;;;;;;;163.18;78.80;;;;;;;;;;5007785;28;25068;-73
2023/12/05 05:38:20;;;;;;;151.00;75.28;;;;;;;;;;5008237;28;25076;-72
2023/12/05 05:40:47;;;;;;;170.35;79.13;;;;;;;;;;5014064;28;25101;-74
2023/12/05 05:43:13;;;;;;;168.50;79.75;;;;;;;;;;5014563;28;25061;-73
2023/12/05 05:45:39;;;;;;;176.10;79.05;;;;;;;;;;5012487;28;25071;-75
2023/12/05 05:48:05;;;;;;;160.20;78.07;;;;;;;;;;5010549;28;25076;-73
2023/12/05 05:50:32;;;;;;;127.38;71.30;;;;;;;;;;5010132;28;25064;-75
2023/12/05 05:52:58;;;;;;;154.85;78.15;;;;;;;;;;5006288;28;25077;-74
2023/12/05 05:55:24;;;;;;;173.10;78.95;;;;;;;;;;5001205;28;25061;-75
2023/12/05 05:57:51;;;;;;;146.30;74.15;;;;;;;;;;5006170;28;25200;-75
2023/12/05 06:00:17;;;;;;;139.88;74.80;;;;;;;;;;5009130;28;25067;-77
2023/12/05 06:02:43;;;;;;;122.43;68.57;;;;;;;;;;5010564;28;25068;-76
2023/12/05 06:05:10;;;;;;;115.00;68.28;;;;;;;;;;5009342;28;25063;-75
2023/12/05 06:07:36;;;;;;;122.05;70.43;;;;;;;;;;5008779;28;25074;-74
2023/12/05 06:10:03;;;;;;;109.38;64.28;;;;;;;;;;5009125;28;25130;-75
2023/12/05 06:12:29;;;;;;;110.70;64.57;;;;;;;;;;5008308;28;25056;-75
2023/12/05 06:14:55;;;;;;;90.80;59.95;;;;;;;;;;5007916;28;25068;-76
2023/12/05 06:17:21;;;;;;;115.55;69.10;;;;;;;;;;5010323;28;25105;-75
2023/12/05 06:19:47;;;;;;;120.55;67.20;;;;;;;;;;5008366;28;25070;-73
2023/12/05 06:22:13;;;;;;;99.32;64.72;;;;;;;;;;5008761;28;25083;-74
2023/12/05 06:24:39;;;;;;;106.38;64.93;;;;;;;;;;5023469;28;25058;-74
2023/12/05 06:27:05;;;;;;;116.90;67.07;;;;;;;;;;5025913;28;25085;-74
2023/12/05 06:29:32;;;;;;;110.65;63.63;;;;;;;;;;5023088;28;25072;-75
2023/12/05 06:31:58;;;;;;;115.40;66.57;;;;;;;;;;5013873;28;25075;-75
2023/12/05 06:34:24;;;;;;;117.63;70.55;;;;;;;;;;5010254;28;25070;-75
2023/12/05 06:36:50;;;;;;;116.15;67.35;;;;;;;;;;5013146;28;25134;-74
2023/12/05 06:39:16;;;;;;;114.70;67.25;;;;;;;;;;5009155;28;25074;-75
2023/12/05 06:41:42;;;;;;;121.18;67.65;;;;;;;;;;5007614;28;25079;-75
2023/12/05 06:44:08;;;;;;;118.57;65.63;;;;;;;;;;5009087;28;25077;-73
2023/12/05 06:46:34;;;;;;;111.30;63.17;;;;;;;;;;5007693;28;25110;-75
2023/12/05 06:49:00;;;;;;;96.32;60.15;;;;;;;;;;5008394;28;25059;-74
2023/12/05 06:51:26;;;;;;;101.03;65.38;;;;;;;;;;5008635;28;25144;-74
2023/12/05 06:53:52;;;;;;;105.88;64.97;;;;;;;;;;5006919;28;25101;-74
2023/12/05 06:56:22;;;;;;;96.10;60.17;;;;;;;;;;5007736;28;25098;-74
2023/12/05 06:58:48;;;;;;;96.65;61.05;;;;;;;;;;5008148;28;25073;-75
2023/12/05 07:01:14;;;;;;;92.47;63.03;;;;;;;;;;5007926;28;25082;-74
2023/12/05 07:03:40;;;;;;;86.57;58.35;;;;;;;;;;5003566;28;25153;-75
2023/12/05 07:06:06;;;;;;;95.97;63.00;;;;;;;;;;5006939;28;25053;-75
2023/12/05 07:08:32;;;;;;;102.90;64.45;;;;;;;;;;5006341;28;25119;-74
2023/12/05 07:10:58;;;;;;;84.78;60.15;;;;;;;;;;5012021;28;25077;-75
2023/12/05 07:13:24;;;;;;;110.40;66.95;;;;;;;;;;5007338;28;25055;-75
2023/12/05 07:15:50;;;;;;;115.63;67.47;;;;;;;;;;5007390;28;25065;-76
2023/12/05 07:18:15;;;;;;;118.95;71.95;;;;;;;;;;5006858;28;25102;-76
2023/12/05 07:20:41;;;;;;;110.15;63.03;;;;;;;;;;5006493;28;25060;-75
2023/12/05 07:23:07;;;;;;;97.90;62.42;;;;;;;;;;5005026;28;25060;-75
2023/12/05 07:25:33;;;;;;;108.20;64.00;;;;;;;;;;5007159;28;25151;-74
2023/12/05 07:28:02;;;;;;;113.18;62.40;;;;;;;;;;5009626;28;25077;-76
2023/12/05 07:30:28;;;;;;;95.15;58.53;;;;;;;;;;5010809;28;25116;-75
2023/12/05 07:32:54;;;;;;;109.78;58.63;;;;;;;;;;5005110;28;25070;-75
2023/12/05 07:35:20;;;;;;;97.13;57.28;;;;;;;;;;5004925;28;25113;-75
2023/12/05 07:37:46;;;;;;;97.97;60.22;;;;;;;;;;5008033;28;25060;-76
2023/12/05 07:40:13;;;;;;;91.80;57.15;;;;;;;;;;5005062;28;25142;-76
2023/12/05 07:42:39;;;;;;;93.15;58.53;;;;;;;;;;5005374;28;25131;-76
2023/12/05 07:45:07;;;;;;;88.22;55.90;;;;;;;;;;5003245;28;25139;-75
2023/12/05 07:47:33;;;;;;;94.03;59.13;;;;;;;;;;5006726;28;25100;-75
2023/12/05 07:49:59;;;;;;;100.90;60.78;;;;;;;;;;5006741;28;25053;-76
2023/12/05 07:52:26;;;;;;;104.65;61.17;;;;;;;;;;5006721;28;25063;-74
2023/12/05 07:54:52;;;;;;;92.85;58.05;;;;;;;;;;5001020;28;25143;-76
2023/12/05 07:57:22;;;;;;;102.13;59.15;;;;;;;;;;5004468;28;25057;-75
2023/12/05 07:59:48;;;;;;;96.72;56.55;;;;;;;;;;5006142;28;25052;-75
2023/12/05 08:02:14;;;;;;;91.05;58.70;;;;;;;;;;5006879;28;25084;-75
2023/12/05 08:04:41;;;;;;;99.28;59.85;;;;;;;;;;5006854;28;25087;-75
2023/12/05 08:07:08;;;;;;;95.15;57.63;;;;;;;;;;5004399;28;25058;-76
2023/12/05 08:09:34;;;;;;;98.22;60.20;;;;;;;;;;5007307;28;25127;-76
2023/12/05 08:12:00;;;;;;;110.28;60.85;;;;;;;;;;5001394;28;25083;-75
2023/12/05 08:14:29;;;;;;;96.50;62.78;;;;;;;;;;5021495;28;25146;-78
2023/12/05 08:16:55;;;;;;;106.13;59.78;;;;;;;;;;5002461;28;25092;-75
2023/12/05 08:19:21;;;;;;;107.00;62.03;;;;;;;;;;5002982;28;25092;-74
2023/12/05 08:21:47;;;;;;;113.47;63.58;;;;;;;;;;5007905;28;25084;-76
2023/12/05 08:24:13;;;;;;;115.57;65.05;;;;;;;;;;5003860;28;25114;-76
2023/12/05 08:26:39;;;;;;;121.03;63.45;;;;;;;;;;5005729;28;25101;-75
2023/12/05 08:29:05;;;;;;;98.20;58.95;;;;;;;;;;5007134;28;25083;-76
2023/12/05 08:31:31;;;;;;;104.60;58.95;;;;;;;;;;5003808;28;25069;-75
2023/12/05 08:33:58;;;;;;;109.10;62.97;;;;;;;;;;5008319;28;25066;-77
2023/12/05 08:36:24;;;;;;;106.75;63.55;;;;;;;;;;5009979;28;25049;-78
2023/12/05 08:38:50;;;;;;;106.40;66.93;;;;;;;;;;5003646;28;25070;-75
2023/12/05 08:41:19;;;;;;;111.45;63.45;;;;;;;;;;5007845;28;25061;-77
2023/12/05 08:43:46;;;;;;;106.93;62.42;;;;;;;;;;5009216;28;25101;-74
2023/12/05 08:46:12;;;;;;;112.53;63.97;;;;;;;;;;5006726;28;25106;-75
2023/12/05 08:48:39;;;;;;;116.85;61.85;;;;;;;;;;5003222;28;25066;-76
2023/12/05 08:51:05;;;;;;;89.43;57.58;;;;;;;;;;5008211;28;25057;-77
2023/12/05 08:53:31;;;;;;;103.93;63.28;;;;;;;;;;5003252;28;25079;-75
2023/12/05 08:55:57;;;;;;;111.22;61.50;;;;;;;;;;5004058;28;25076;-76
2023/12/05 08:58:23;;;;;;;107.97;66.88;;;;;;;;;;5002826;28;25063;-75
2023/12/05 09:00:49;;;;;;;105.85;63.63;;;;;;;;;;5010088;28;25102;-75
2023/12/05 09:03:16;;;;;;;127.85;65.53;;;;;;;;;;5006163;28;25123;-75
2023/12/05 09:05:42;;;;;;;128.60;67.97;;;;;;;;;;5003540;28;25067;-74
2023/12/05 09:08:08;;;;;;;109.25;64.43;;;;;;;;;;5006608;28;25075;-74
2023/12/05 09:10:34;;;;;;;110.63;64.82;;;;;;;;;;5004010;28;25072;-74
2023/12/05 09:12:59;;;;;;;107.70;65.72;;;;;;;;;;5000440;28;25069;-75
2023/12/05 09:15:25;;;;;;;113.82;67.72;;;;;;;;;;5007920;28;25057;-76
2023/12/05 09:17:51;;;;;;;114.75;67.88;;;;;;;;;;5007487;28;25059;-75
2023/12/05 09:20:19;;;;;;;121.32;71.57;;;;;;;;;;5007737;28;25055;-76
2023/12/05 09:22:45;;;;;;;139.85;74.43;;;;;;;;;;5003183;28;25084;-74
2023/12/05 09:25:11;;;;;;;125.15;71.15;;;;;;;;;;5007549;28;25073;-74
2023/12/05 09:27:37;;;;;;;112.78;65.57;;;;;;;;;;5006549;28;25063;-75
2023/12/05 09:30:04;;;;;;;111.85;65.00;;;;;;;;;;5009663;28;25052;-76
2023/12/05 09:32:30;;;;;;;135.63;70.97;;;;;;;;;;5006381;28;25069;-77
2023/12/05 09:34:55;;;;;;;128.10;69.97;;;;;;;;;;5004446;28;25069;-75
2023/12/05 09:37:21;;;;;;;130.63;72.43;;;;;;;;;;5007759;28;25061;-74
2023/12/05 09:39:47;;;;;;;147.18;76.97;;;;;;;;;;5015390;28;25056;-74
2023/12/05 09:42:14;;;;;;;136.38;73.68;;;;;;;;;;5016333;28;25141;-75
2023/12/05 09:44:45;;;;;;;133.18;74.78;;;;;;;;;;5014839;28;25061;-74
2023/12/05 09:47:11;;;;;;;129.38;75.63;;;;;;;;;;5024510;28;25111;-74
2023/12/05 09:49:39;;;;;;;134.70;73.68;;;;;;;;;;5023216;28;25089;-75
2023/12/05 09:52:06;;;;;;;139.38;71.88;;;;;;;;;;5016199;28;25075;-75
2023/12/05 09:54:32;;;;;;;133.20;72.80;;;;;;;;;;5028977;28;25061;-75
2023/12/05 09:56:58;;;;;;;132.93;72.97;;;;;;;;;;5012664;28;25062;-73
2023/12/05 09:59:24;;;;;;;138.88;76.70;;;;;;;;;;5011042;28;25081;-74
2023/12/05 10:01:52;;;;;;;120.22;68.80;;;;;;;;;;5009579;28;25049;-75
2023/12/05 10:04:19;;;;;;;132.32;71.32;;;;;;;;;;5009445;28;25071;-75
2023/12/05 10:06:45;;;;;;;135.25;73.18;;;;;;;;;;5009544;28;25064;-74
2023/12/05 10:09:15;;;;;;;160.05;77.43;;;;;;;;;;5015044;28;25137;-74
2023/12/05 10:11:41;;;;;;;150.63;75.13;;;;;;;;;;5022867;28;25062;-74
2023/12/05 10:14:08;;;;;;;171.05;80.07;;;;;;;;;;5009641;28;25103;-75
2023/12/05 10:16:34;;;;;;;162.32;74.10;;;;;;;;;;5013150;28;25090;-75
2023/12/05 10:19:01;;;;;;;169.65;77.38;;;;;;;;;;5012016;28;25073;-74
2023/12/05 10:21:27;;;;;;;167.90;79.55;;;;;;;;;;5008306;28;25081;-76
2023/12/05 10:23:54;;;;;;;139.57;73.28;;;;;;;;;;5008673;28;25089;-75
2023/12/05 10:26:20;;;;;;;141.55;71.30;;;;;;;;;;5004452;28;25174;-75
2023/12/05 10:28:53;;;;;;;140.05;72.90;;;;;;;;;;5008883;28;25068;-75
2023/12/05 10:31:19;;;;;;;133.52;71.03;;;;;;;;;;5000778;28;25049;-74
2023/12/05 10:33:46;;;;;;;132.68;76.10;;;;;;;;;;5009549;28;25060;-75
2023/12/05 10:36:12;;;;;;;140.10;73.22;;;;;;;;;;5001969;28;25053;-74
2023/12/05 10:38:38;;;;;;;130.73;71.13;;;;;;;;;;5022393;28;25165;-74
2023/12/05 10:41:04;;;;;;;137.02;69.85;;;;;;;;;;5006246;28;25044;-75
2023/12/05 10:43:30;;;;;;;141.02;75.25;;;;;;;;;;5016517;28;25074;-75
2023/12/05 10:45:57;;;;;;;131.40;68.20;;;;;;;;;;5012923;28;25069;-75
2023/12/05 10:48:26;;;;;;;152.98;69.65;;;;;;;;;;5012913;28;25078;-75
2023/12/05 10:50:53;;;;;;;161.13;73.90;;;;;;;;;;5014330;28;25107;-74
2023/12/05 10:53:19;;;;;;;155.75;72.90;;;;;;;;;;5010958;28;25066;-74
2023/12/05 10:55:45;;;;;;;160.02;69.28;;;;;;;;;;5012015;28;25139;-74
2023/12/05 10:58:11;;;;;;;165.80;74.10;;;;;;;;;;5012456;28;25084;-74
2023/12/05 11:00:38;;;;;;;155.77;76.32;;;;;;;;;;5018084;28;25055;-73
2023/12/05 11:03:04;;;;;;;166.13;74.90;;;;;;;;;;5010043;28;25167;-74
2023/12/05 11:05:31;;;;;;;152.52;72.10;;;;;;;;;;5004947;28;25099;-73
2023/12/05 11:07:57;;;;;;;170.23;74.95;;;;;;;;;;5009054;28;25044;-72
2023/12/05 11:10:23;;;;;;;164.63;77.10;;;;;;;;;;5006338;28;25153;-74
2023/12/05 11:12:50;;;;;;;162.35;72.47;;;;;;;;;;5006524;28;25063;-74
2023/12/05 11:15:17;;;;;;;168.68;75.25;;;;;;;;;;5008684;28;25074;-73
2023/12/05 11:17:49;;;;;;;149.85;72.05;;;;;;;;;;5008702;28;25051;-73
2023/12/05 11:20:34;;;;;;;161.38;75.45;;;;;;;;;;5008898;28;25059;-73
2023/12/05 11:23:03;;;;;;;139.40;69.10;;;;;;;;;;5001091;28;25063;-74
2023/12/05 11:25:29;;;;;;;138.43;67.45;;;;;;;;;;5007487;28;25068;-73
2023/12/05 11:28:04;;;;;;;135.68;69.93;;;;;;;;;;5010004;28;25099;-73
2023/12/05 11:30:44;;;;;;;126.82;71.82;;;;;;;;;;5006250;28;25088;-73
2023/12/05 11:33:10;;;;;;;131.27;69.78;;;;;;;;;;5006086;28;25050;-74
2023/12/05 11:35:59;;;;;;;115.60;67.15;;;;;;;;;;5004745;28;25086;-74
2023/12/05 11:38:25;;;;;;;126.38;73.07;;;;;;;;;;5003451;28;25089;-75
2023/12/05 11:41:10;;;;;;;131.18;78.45;;;;;;;;;;5005449;28;25093;-75
2023/12/05 11:43:36;;;;;;;142.10;76.97;;;;;;;;;;5006067;28;25059;-75
2023/12/05 11:46:02;;;;;;;136.27;73.32;;;;;;;;;;5006068;28;25073;-73
2023/12/05 11:48:29;;;;;;;137.32;76.88;;;;;;;;;;5004986;28;25080;-74
2023/12/05 11:50:57;;;;;;;140.13;75.18;;;;;;;;;;5006632;28;25126;-73
2023/12/05 11:53:23;;;;;;;149.40;83.55;;;;;;;;;;5001275;28;25142;-74
2023/12/05 11:55:49;;;;;;;142.77;78.82;;;;;;;;;;5004714;28;25063;-76
2023/12/05 11:58:28;;;;;;;144.50;79.10;;;;;;;;;;5008226;28;25064;-75
2023/12/05 12:01:04;;;;;;;144.82;78.93;;;;;;;;;;5008018;28;25061;-74
2023/12/05 12:03:50;;;;;;;138.32;77.07;;;;;;;;;;5002475;28;25078;-75
2023/12/05 12:06:16;;;;;;;119.70;73.55;;;;;;;;;;5006233;28;25069;-75
2023/12/05 12:08:45;;;;;;;109.90;70.88;;;;;;;;;;5008849;28;25065;-73
2023/12/05 12:11:11;;;;;;;115.35;70.15;;;;;;;;;;5006433;28;25070;-73
2023/12/05 12:13:37;;;;;;;129.07;74.53;;;;;;;;;;5006015;28;25065;-75
2023/12/05 12:16:03;;;;;;;116.72;69.43;;;;;;;;;;5003817;28;25130;-75
2023/12/05 12:18:30;;;;;;;139.60;75.07;;;;;;;;;;5004715;28;25095;-74
2023/12/05 12:20:56;;;;;;;110.03;70.53;;;;;;;;;;5005199;28;25089;-74
2023/12/05 12:23:23;;;;;;;123.97;69.90;;;;;;;;;;5002722;28;25058;-74
2023/12/05 12:26:00;;;;;;;120.72;70.53;;;;;;;;;;5002650;28;25198;-74
2023/12/05 12:28:28;;;;;;;110.63;69.15;;;;;;;;;;5003378;28;25113;-74
2023/12/05 12:30:55;;;;;;;108.07;65.57;;;;;;;;;;5005798;28;25124;-74
2023/12/05 12:33:22;;;;;;;103.75;64.40;;;;;;;;;;5006454;28;25080;-74
2023/12/05 12:35:50;;;;;;;110.22;64.50;;;;;;;;;;5006273;28;25062;-75
2023/12/05 12:38:16;;;;;;;113.38;71.05;;;;;;;;;;5005754;28;25058;-75
2023/12/05 12:40:42;;;;;;;112.35;68.10;;;;;;;;;;5006021;28;25040;-75
2023/12/05 12:43:08;;;;;;;101.10;65.30;;;;;;;;;;5007386;28;25132;-73
2023/12/05 12:45:34;;;;;;;102.95;65.82;;;;;;;;;;5016509;28;25057;-74
2023/12/05 12:48:03;;;;;;;106.60;67.78;;;;;;;;;;5016939;28;25108;-74
2023/12/05 12:50:29;;;;;;;105.90;66.63;;;;;;;;;;5006873;28;25130;-74
2023/12/05 12:52:56;;;;;;;105.15;65.50;;;;;;;;;;5005507;28;25082;-74
2023/12/05 12:55:23;;;;;;;115.55;67.63;;;;;;;;;;5005100;28;25061;-74
2023/12/05 12:57:53;;;;;;;105.47;63.95;;;;;;;;;;5005512;28;25056;-76
2023/12/05 13:00:20;;;;;;;109.35;68.47;;;;;;;;;;5005256;28;25090;-73
2023/12/05 13:02:46;;;;;;;108.47;66.28;;;;;;;;;;5013302;28;25073;-74
2023/12/05 13:05:12;;;;;;;108.95;65.65;;;;;;;;;;5015847;28;25062;-74
2023/12/05 13:07:38;;;;;;;109.18;68.15;;;;;;;;;;5020596;28;25062;-75
2023/12/05 13:10:05;;;;;;;101.63;65.95;;;;;;;;;;5021920;28;25097;-74
2023/12/05 13:12:31;;;;;;;108.45;66.05;;;;;;;;;;5017214;28;25173;-74
2023/12/05 13:14:57;;;;;;;114.78;72.55;;;;;;;;;;5020835;28;25076;-74
2023/12/05 13:17:23;;;;;;;102.15;67.45;;;;;;;;;;5015521;28;25076;-74
2023/12/05 13:19:50;;;;;;;106.65;67.88;;;;;;;;;;5012894;28;25070;-74
2023/12/05 13:22:16;;;;;;;102.63;71.32;;;;;;;;;;5005539;28;25060;-74
2023/12/05 13:24:42;;;;;;;97.15;69.25;;;;;;;;;;5003891;28;25067;-75
2023/12/05 13:27:08;;;;;;;97.90;66.85;;;;;;;;;;5008472;28;25082;-73
2023/12/05 13:29:37;;;;;;;97.43;63.22;;;;;;;;;;5004950;28;25071;-75
2023/12/05 13:32:03;;;;;;;93.32;62.03;;;;;;;;;;5007916;28;25094;-73
2023/12/05 13:34:29;;;;;;;92.00;63.30;;;;;;;;;;5001499;28;25136;-73
2023/12/05 13:36:55;;;;;;;94.82;64.57;;;;;;;;;;5005514;28;25068;-74
2023/12/05 13:39:21;;;;;;;98.55;69.25;;;;;;;;;;5001894;28;25112;-74
2023/12/05 13:41:51;;;;;;;100.15;65.22;;;;;;;;;;5006577;28;25096;-74
2023/12/05 13:44:17;;;;;;;103.82;69.07;;;;;;;;;;5001208;28;25090;-73
2023/12/05 13:46:43;;;;;;;107.60;67.10;;;;;;;;;;5003884;28;25077;-73
2023/12/05 13:49:08;;;;;;;100.60;67.75;;;;;;;;;;5005195;28;25071;-74
2023/12/05 13:51:35;;;;;;;104.25;66.60;;;;;;;;;;5006349;28;25069;-73
2023/12/05 13:54:01;;;;;;;103.53;68.57;;;;;;;;;;5005573;28;25074;-74
2023/12/05 13:56:27;;;;;;;103.68;70.07;;;;;;;;;;5004058;28;25140;-74
2023/12/05 13:58:53;;;;;;;110.30;69.95;;;;;;;;;;5004902;28;25137;-74
2023/12/05 14:01:19;;;;;;;115.32;71.55;;;;;;;;;;5005824;28;25073;-75
2023/12/05 14:03:48;;;;;;;120.55;72.10;;;;;;;;;;5005897;28;25068;-73